Terminal Aerodrome Forecast
Issued by NWS

Home | Current Version | Previous Version | Text Only | Print | Product List | Glossary On
Versions: 1 2 3 4 5 6 7 8 9 10 11 12 13 14 15
147
FTUS43 KGRR 220540
TAFJXN
TAF
KJXN 220540Z 2206/2306 14008KT P6SM -SHRA SCT040 OVC100
      TEMPO 2206/2210 4SM -RA BR OVC025
     FM221000 16005KT P6SM VCSH OVC025
     FM221500 21005KT P6SM BKN025
     FM221900 24006KT P6SM BKN035
     FM230000 VRB03KT P6SM FEW040 SCT200=

USA.gov is the U.S. government's official web portal to all federal, state and local government web resources and services.